sensor_id;sensor_type;location;lat;lon;timestamp;P1;durP1;ratioP1;P2;durP2;ratioP2
44147;SDS011;29810;55.848;37.368;2022-08-21T00:01:19;46.17;;;36.38;;
44147;SDS011;29810;55.848;37.368;2022-08-21T00:04:24;52.42;;;39.83;;
44147;SDS011;29810;55.848;37.368;2022-08-21T00:07:25;47.60;;;39.13;;
44147;SDS011;29810;55.848;37.368;2022-08-21T00:10:27;51.45;;;41.08;;
44147;SDS011;29810;55.848;37.368;2022-08-21T00:13:29;50.83;;;41.90;;
44147;SDS011;29810;55.848;37.368;2022-08-21T00:16:30;55.03;;;42.85;;
44147;SDS011;29810;55.848;37.368;2022-08-21T00:19:32;55.75;;;42.55;;
44147;SDS011;29810;55.848;37.368;2022-08-21T00:22:35;50.50;;;42.40;;
44147;SDS011;29810;55.848;37.368;2022-08-21T00:25:37;55.35;;;43.35;;
44147;SDS011;29810;55.848;37.368;2022-08-21T00:28:39;52.35;;;44.05;;
44147;SDS011;29810;55.848;37.368;2022-08-21T00:31:41;51.83;;;44.35;;
44147;SDS011;29810;55.848;37.368;2022-08-21T00:34:43;61.80;;;45.63;;
44147;SDS011;29810;55.848;37.368;2022-08-21T00:37:45;56.72;;;44.35;;
44147;SDS011;29810;55.848;37.368;2022-08-21T00:40:51;57.95;;;45.30;;
44147;SDS011;29810;55.848;37.368;2022-08-21T00:44:00;55.00;;;44.40;;
44147;SDS011;29810;55.848;37.368;2022-08-21T00:47:02;56.03;;;46.00;;
44147;SDS011;29810;55.848;37.368;2022-08-21T00:50:06;57.00;;;45.72;;
44147;SDS011;29810;55.848;37.368;2022-08-21T00:53:08;59.50;;;46.67;;
44147;SDS011;29810;55.848;37.368;2022-08-21T00:56:12;57.05;;;45.03;;
44147;SDS011;29810;55.848;37.368;2022-08-21T00:59:15;55.58;;;46.88;;
44147;SDS011;29810;55.848;37.368;2022-08-21T01:02:18;58.58;;;46.40;;
44147;SDS011;29810;55.848;37.368;2022-08-21T01:05:21;61.15;;;46.95;;
44147;SDS011;29810;55.848;37.368;2022-08-21T01:08:23;56.22;;;45.78;;
44147;SDS011;29810;55.848;37.368;2022-08-21T01:11:25;57.47;;;45.70;;
44147;SDS011;29810;55.848;37.368;2022-08-21T01:14:27;60.55;;;46.10;;
44147;SDS011;29810;55.848;37.368;2022-08-21T01:17:29;55.03;;;45.97;;
44147;SDS011;29810;55.848;37.368;2022-08-21T01:20:33;61.17;;;46.60;;
44147;SDS011;29810;55.848;37.368;2022-08-21T01:23:37;60.30;;;45.05;;
44147;SDS011;29810;55.848;37.368;2022-08-21T01:26:40;55.25;;;45.03;;
44147;SDS011;29810;55.848;37.368;2022-08-21T01:32:58;58.78;;;45.25;;
44147;SDS011;29810;55.848;37.368;2022-08-21T01:36:00;55.25;;;43.72;;
44147;SDS011;29810;55.848;37.368;2022-08-21T01:39:02;56.80;;;43.55;;
44147;SDS011;29810;55.848;37.368;2022-08-21T01:42:05;54.22;;;42.67;;
44147;SDS011;29810;55.848;37.368;2022-08-21T01:45:07;56.40;;;43.67;;
44147;SDS011;29810;55.848;37.368;2022-08-21T01:48:10;59.25;;;44.53;;
44147;SDS011;29810;55.848;37.368;2022-08-21T01:51:11;55.03;;;42.33;;
44147;SDS011;29810;55.848;37.368;2022-08-21T01:54:13;52.85;;;43.05;;
44147;SDS011;29810;55.848;37.368;2022-08-21T01:57:14;56.55;;;42.28;;
44147;SDS011;29810;55.848;37.368;2022-08-21T02:00:18;53.13;;;43.35;;
44147;SDS011;29810;55.848;37.368;2022-08-21T02:03:23;53.87;;;41.50;;
44147;SDS011;29810;55.848;37.368;2022-08-21T02:06:26;54.65;;;41.88;;
44147;SDS011;29810;55.848;37.368;2022-08-21T02:09:27;52.00;;;42.10;;
44147;SDS011;29810;55.848;37.368;2022-08-21T02:12:29;49.83;;;39.78;;
44147;SDS011;29810;55.848;37.368;2022-08-21T02:15:51;49.00;;;39.30;;
44147;SDS011;29810;55.848;37.368;2022-08-21T02:18:53;49.97;;;39.67;;
44147;SDS011;29810;55.848;37.368;2022-08-21T02:21:54;51.97;;;40.58;;
44147;SDS011;29810;55.848;37.368;2022-08-21T02:24:56;49.97;;;38.83;;
44147;SDS011;29810;55.848;37.368;2022-08-21T02:27:58;48.92;;;38.85;;
44147;SDS011;29810;55.848;37.368;2022-08-21T02:31:01;48.50;;;38.53;;
44147;SDS011;29810;55.848;37.368;2022-08-21T02:34:03;49.30;;;38.35;;
44147;SDS011;29810;55.848;37.368;2022-08-21T02:37:05;45.38;;;37.60;;
44147;SDS011;29810;55.848;37.368;2022-08-21T02:40:06;46.20;;;36.53;;
44147;SDS011;29810;55.848;37.368;2022-08-21T02:43:11;45.72;;;36.78;;
44147;SDS011;29810;55.848;37.368;2022-08-21T02:46:14;49.92;;;37.22;;
44147;SDS011;29810;55.848;37.368;2022-08-21T02:49:18;49.77;;;37.50;;
44147;SDS011;29810;55.848;37.368;2022-08-21T02:52:19;49.83;;;35.90;;
44147;SDS011;29810;55.848;37.368;2022-08-21T02:55:24;50.47;;;36.33;;
44147;SDS011;29810;55.848;37.368;2022-08-21T02:58:29;45.97;;;34.95;;
44147;SDS011;29810;55.848;37.368;2022-08-21T03:01:33;49.22;;;35.97;;
44147;SDS011;29810;55.848;37.368;2022-08-21T03:04:35;43.42;;;34.67;;
44147;SDS011;29810;55.848;37.368;2022-08-21T03:07:37;39.60;;;33.33;;
44147;SDS011;29810;55.848;37.368;2022-08-21T03:10:42;41.25;;;34.13;;
44147;SDS011;29810;55.848;37.368;2022-08-21T03:13:45;43.22;;;34.15;;
44147;SDS011;29810;55.848;37.368;2022-08-21T03:16:46;44.15;;;33.30;;
44147;SDS011;29810;55.848;37.368;2022-08-21T03:19:48;40.97;;;33.78;;
44147;SDS011;29810;55.848;37.368;2022-08-21T03:22:50;39.60;;;33.40;;
44147;SDS011;29810;55.848;37.368;2022-08-21T03:25:52;47.30;;;34.33;;
44147;SDS011;29810;55.848;37.368;2022-08-21T03:28:54;46.70;;;33.60;;
44147;SDS011;29810;55.848;37.368;2022-08-21T03:31:57;44.97;;;34.30;;
44147;SDS011;29810;55.848;37.368;2022-08-21T03:34:58;44.88;;;33.92;;
44147;SDS011;29810;55.848;37.368;2022-08-21T03:38:01;42.47;;;33.35;;
44147;SDS011;29810;55.848;37.368;2022-08-21T03:41:03;41.95;;;33.55;;
44147;SDS011;29810;55.848;37.368;2022-08-21T03:44:06;47.25;;;34.03;;
44147;SDS011;29810;55.848;37.368;2022-08-21T03:47:07;43.05;;;33.47;;
44147;SDS011;29810;55.848;37.368;2022-08-21T03:50:09;40.88;;;32.85;;
44147;SDS011;29810;55.848;37.368;2022-08-21T03:53:11;42.45;;;33.00;;
44147;SDS011;29810;55.848;37.368;2022-08-21T03:56:13;39.97;;;33.20;;
44147;SDS011;29810;55.848;37.368;2022-08-21T03:59:14;41.30;;;32.20;;
44147;SDS011;29810;55.848;37.368;2022-08-21T04:02:17;38.53;;;31.37;;
44147;SDS011;29810;55.848;37.368;2022-08-21T04:05:22;39.08;;;31.85;;
44147;SDS011;29810;55.848;37.368;2022-08-21T04:08:30;42.20;;;31.50;;
44147;SDS011;29810;55.848;37.368;2022-08-21T04:11:32;39.58;;;32.85;;
44147;SDS011;29810;55.848;37.368;2022-08-21T04:14:33;39.88;;;31.17;;
44147;SDS011;29810;55.848;37.368;2022-08-21T04:17:35;39.63;;;31.23;;
44147;SDS011;29810;55.848;37.368;2022-08-21T04:20:37;33.78;;;29.73;;
44147;SDS011;29810;55.848;37.368;2022-08-21T04:23:39;39.95;;;31.27;;
44147;SDS011;29810;55.848;37.368;2022-08-21T04:26:40;40.78;;;30.00;;
44147;SDS011;29810;55.848;37.368;2022-08-21T04:29:42;38.60;;;30.45;;
44147;SDS011;29810;55.848;37.368;2022-08-21T04:32:44;41.13;;;31.58;;
44147;SDS011;29810;55.848;37.368;2022-08-21T04:35:48;36.85;;;32.00;;
44147;SDS011;29810;55.848;37.368;2022-08-21T04:38:50;38.50;;;30.67;;
44147;SDS011;29810;55.848;37.368;2022-08-21T04:41:52;42.55;;;31.27;;
44147;SDS011;29810;55.848;37.368;2022-08-21T04:44:54;38.08;;;31.92;;
44147;SDS011;29810;55.848;37.368;2022-08-21T04:47:58;36.33;;;30.58;;
44147;SDS011;29810;55.848;37.368;2022-08-21T04:51:10;40.88;;;31.48;;
44147;SDS011;29810;55.848;37.368;2022-08-21T04:54:17;40.38;;;31.50;;
44147;SDS011;29810;55.848;37.368;2022-08-21T04:57:22;40.63;;;32.03;;
44147;SDS011;29810;55.848;37.368;2022-08-21T05:00:24;38.90;;;32.33;;
44147;SDS011;29810;55.848;37.368;2022-08-21T05:03:25;39.03;;;32.53;;
44147;SDS011;29810;55.848;37.368;2022-08-21T05:06:28;37.17;;;31.73;;
44147;SDS011;29810;55.848;37.368;2022-08-21T05:09:33;37.00;;;31.60;;
44147;SDS011;29810;55.848;37.368;2022-08-21T05:12:36;42.10;;;32.17;;
44147;SDS011;29810;55.848;37.368;2022-08-21T05:15:37;39.45;;;31.45;;
44147;SDS011;29810;55.848;37.368;2022-08-21T05:18:39;40.55;;;32.40;;
44147;SDS011;29810;55.848;37.368;2022-08-21T05:21:41;39.72;;;33.38;;
44147;SDS011;29810;55.848;37.368;2022-08-21T05:24:45;48.00;;;34.65;;
44147;SDS011;29810;55.848;37.368;2022-08-21T05:27:46;39.22;;;33.63;;
44147;SDS011;29810;55.848;37.368;2022-08-21T05:30:49;37.92;;;33.80;;
44147;SDS011;29810;55.848;37.368;2022-08-21T05:33:50;43.38;;;34.63;;
44147;SDS011;29810;55.848;37.368;2022-08-21T05:36:52;39.60;;;34.80;;
44147;SDS011;29810;55.848;37.368;2022-08-21T05:39:53;40.20;;;35.80;;
44147;SDS011;29810;55.848;37.368;2022-08-21T05:42:55;45.22;;;36.78;;
44147;SDS011;29810;55.848;37.368;2022-08-21T05:45:56;40.75;;;36.38;;
44147;SDS011;29810;55.848;37.368;2022-08-21T05:48:58;43.33;;;35.50;;
44147;SDS011;29810;55.848;37.368;2022-08-21T05:51:59;45.20;;;36.45;;
44147;SDS011;29810;55.848;37.368;2022-08-21T05:55:02;41.13;;;36.58;;
44147;SDS011;29810;55.848;37.368;2022-08-21T05:58:04;42.75;;;37.88;;
44147;SDS011;29810;55.848;37.368;2022-08-21T06:01:06;44.38;;;36.80;;
44147;SDS011;29810;55.848;37.368;2022-08-21T06:04:09;49.15;;;37.38;;
44147;SDS011;29810;55.848;37.368;2022-08-21T06:07:11;41.40;;;36.38;;
44147;SDS011;29810;55.848;37.368;2022-08-21T06:10:13;42.65;;;37.13;;
44147;SDS011;29810;55.848;37.368;2022-08-21T06:13:15;41.17;;;36.03;;
44147;SDS011;29810;55.848;37.368;2022-08-21T06:16:18;41.55;;;34.78;;
44147;SDS011;29810;55.848;37.368;2022-08-21T06:19:19;42.58;;;35.47;;
44147;SDS011;29810;55.848;37.368;2022-08-21T06:22:21;39.25;;;34.30;;
44147;SDS011;29810;55.848;37.368;2022-08-21T06:25:22;41.37;;;34.47;;
44147;SDS011;29810;55.848;37.368;2022-08-21T06:28:25;44.20;;;35.40;;
44147;SDS011;29810;55.848;37.368;2022-08-21T06:31:27;42.35;;;36.70;;
44147;SDS011;29810;55.848;37.368;2022-08-21T06:34:30;42.40;;;35.13;;
44147;SDS011;29810;55.848;37.368;2022-08-21T06:37:32;48.13;;;36.15;;
44147;SDS011;29810;55.848;37.368;2022-08-21T06:40:34;43.17;;;36.05;;
44147;SDS011;29810;55.848;37.368;2022-08-21T06:43:36;42.17;;;35.88;;
44147;SDS011;29810;55.848;37.368;2022-08-21T06:46:38;43.35;;;36.97;;
44147;SDS011;29810;55.848;37.368;2022-08-21T06:49:39;43.25;;;35.22;;
44147;SDS011;29810;55.848;37.368;2022-08-21T06:52:41;40.78;;;34.95;;
44147;SDS011;29810;55.848;37.368;2022-08-21T06:55:43;45.60;;;35.20;;
44147;SDS011;29810;55.848;37.368;2022-08-21T06:58:45;48.47;;;35.08;;
44147;SDS011;29810;55.848;37.368;2022-08-21T07:01:46;41.78;;;34.90;;
44147;SDS011;29810;55.848;37.368;2022-08-21T07:04:48;44.33;;;35.10;;
44147;SDS011;29810;55.848;37.368;2022-08-21T07:07:49;43.45;;;35.08;;
44147;SDS011;29810;55.848;37.368;2022-08-21T07:10:51;40.50;;;35.20;;
44147;SDS011;29810;55.848;37.368;2022-08-21T07:13:54;41.08;;;35.25;;
44147;SDS011;29810;55.848;37.368;2022-08-21T07:16:57;43.45;;;35.13;;
44147;SDS011;29810;55.848;37.368;2022-08-21T07:19:59;45.67;;;35.67;;
44147;SDS011;29810;55.848;37.368;2022-08-21T07:23:01;45.92;;;37.92;;
44147;SDS011;29810;55.848;37.368;2022-08-21T07:26:06;46.42;;;37.65;;
44147;SDS011;29810;55.848;37.368;2022-08-21T07:29:08;44.83;;;36.70;;
44147;SDS011;29810;55.848;37.368;2022-08-21T07:32:10;45.30;;;36.92;;
44147;SDS011;29810;55.848;37.368;2022-08-21T07:35:12;44.83;;;37.40;;
44147;SDS011;29810;55.848;37.368;2022-08-21T07:38:13;45.38;;;35.92;;
44147;SDS011;29810;55.848;37.368;2022-08-21T07:41:17;39.88;;;35.40;;
44147;SDS011;29810;55.848;37.368;2022-08-21T07:44:24;43.00;;;35.20;;
44147;SDS011;29810;55.848;37.368;2022-08-21T07:47:26;40.97;;;33.55;;
44147;SDS011;29810;55.848;37.368;2022-08-21T07:50:27;40.35;;;33.03;;
44147;SDS011;29810;55.848;37.368;2022-08-21T07:53:29;42.35;;;33.63;;
44147;SDS011;29810;55.848;37.368;2022-08-21T07:56:30;40.92;;;29.12;;
44147;SDS011;29810;55.848;37.368;2022-08-21T07:59:32;38.55;;;29.33;;
44147;SDS011;29810;55.848;37.368;2022-08-21T08:02:34;38.88;;;28.75;;
44147;SDS011;29810;55.848;37.368;2022-08-21T08:05:35;34.85;;;27.42;;
44147;SDS011;29810;55.848;37.368;2022-08-21T08:08:38;30.35;;;25.45;;
44147;SDS011;29810;55.848;37.368;2022-08-21T08:11:41;36.17;;;26.62;;
44147;SDS011;29810;55.848;37.368;2022-08-21T08:14:46;36.10;;;27.40;;
44147;SDS011;29810;55.848;37.368;2022-08-21T08:17:48;34.47;;;27.92;;
44147;SDS011;29810;55.848;37.368;2022-08-21T08:20:50;33.22;;;27.98;;
44147;SDS011;29810;55.848;37.368;2022-08-21T08:23:51;34.85;;;27.37;;
44147;SDS011;29810;55.848;37.368;2022-08-21T08:26:53;33.88;;;26.77;;
44147;SDS011;29810;55.848;37.368;2022-08-21T08:29:55;35.05;;;27.92;;
44147;SDS011;29810;55.848;37.368;2022-08-21T08:32:56;35.58;;;28.70;;
44147;SDS011;29810;55.848;37.368;2022-08-21T08:35:59;36.63;;;27.77;;
44147;SDS011;29810;55.848;37.368;2022-08-21T08:39:01;34.17;;;27.67;;
44147;SDS011;29810;55.848;37.368;2022-08-21T08:42:05;33.00;;;27.20;;
44147;SDS011;29810;55.848;37.368;2022-08-21T08:45:16;35.05;;;27.20;;
44147;SDS011;29810;55.848;37.368;2022-08-21T08:48:33;32.42;;;26.62;;
44147;SDS011;29810;55.848;37.368;2022-08-21T08:54:50;36.22;;;24.73;;
44147;SDS011;29810;55.848;37.368;2022-08-21T08:58:01;32.95;;;24.42;;
44147;SDS011;29810;55.848;37.368;2022-08-21T09:01:05;33.13;;;24.05;;
44147;SDS011;29810;55.848;37.368;2022-08-21T09:04:17;29.98;;;22.85;;
44147;SDS011;29810;55.848;37.368;2022-08-21T09:07:40;28.83;;;22.77;;
44147;SDS011;29810;55.848;37.368;2022-08-21T09:10:57;32.13;;;22.13;;
44147;SDS011;29810;55.848;37.368;2022-08-21T09:27:32;29.40;;;20.48;;
44147;SDS011;29810;55.848;37.368;2022-08-21T09:30:34;29.42;;;19.25;;
44147;SDS011;29810;55.848;37.368;2022-08-21T09:33:36;24.98;;;17.52;;
44147;SDS011;29810;55.848;37.368;2022-08-21T09:36:44;19.77;;;15.65;;
44147;SDS011;29810;55.848;37.368;2022-08-21T09:39:49;20.02;;;15.07;;
44147;SDS011;29810;55.848;37.368;2022-08-21T09:42:54;18.05;;;13.98;;
44147;SDS011;29810;55.848;37.368;2022-08-21T09:49:34;19.98;;;15.43;;
44147;SDS011;29810;55.848;37.368;2022-08-21T09:52:42;21.15;;;16.00;;
44147;SDS011;29810;55.848;37.368;2022-08-21T09:56:05;23.95;;;16.20;;
44147;SDS011;29810;55.848;37.368;2022-08-21T09:59:38;23.95;;;16.02;;
44147;SDS011;29810;55.848;37.368;2022-08-21T10:02:40;23.73;;;16.27;;
44147;SDS011;29810;55.848;37.368;2022-08-21T10:05:50;21.48;;;15.73;;
44147;SDS011;29810;55.848;37.368;2022-08-21T10:09:07;20.40;;;14.80;;
44147;SDS011;29810;55.848;37.368;2022-08-21T10:15:32;20.95;;;14.15;;
44147;SDS011;29810;55.848;37.368;2022-08-21T10:19:07;19.70;;;13.65;;
44147;SDS011;29810;55.848;37.368;2022-08-21T10:25:52;21.65;;;15.05;;
44147;SDS011;29810;55.848;37.368;2022-08-21T10:35:59;26.87;;;15.10;;
44147;SDS011;29810;55.848;37.368;2022-08-21T10:39:24;27.00;;;16.67;;
44147;SDS011;29810;55.848;37.368;2022-08-21T10:42:59;22.60;;;15.80;;
44147;SDS011;29810;55.848;37.368;2022-08-21T10:46:33;27.65;;;15.27;;
44147;SDS011;29810;55.848;37.368;2022-08-21T10:49:45;22.50;;;15.43;;
44147;SDS011;29810;55.848;37.368;2022-08-21T10:56:19;23.85;;;15.98;;
44147;SDS011;29810;55.848;37.368;2022-08-21T10:59:25;21.00;;;15.55;;
44147;SDS011;29810;55.848;37.368;2022-08-21T11:02:33;21.77;;;15.05;;
44147;SDS011;29810;55.848;37.368;2022-08-21T11:05:41;30.62;;;15.43;;
44147;SDS011;29810;55.848;37.368;2022-08-21T11:08:50;31.17;;;14.25;;
44147;SDS011;29810;55.848;37.368;2022-08-21T11:11:57;22.60;;;14.57;;
44147;SDS011;29810;55.848;37.368;2022-08-21T11:18:39;19.33;;;12.50;;
44147;SDS011;29810;55.848;37.368;2022-08-21T11:22:04;23.23;;;13.00;;
44147;SDS011;29810;55.848;37.368;2022-08-21T11:25:10;22.37;;;12.70;;
44147;SDS011;29810;55.848;37.368;2022-08-21T11:28:38;19.75;;;12.52;;
44147;SDS011;29810;55.848;37.368;2022-08-21T11:31:56;18.25;;;10.65;;
44147;SDS011;29810;55.848;37.368;2022-08-21T11:35:25;16.55;;;9.27;;
44147;SDS011;29810;55.848;37.368;2022-08-21T11:38:34;16.75;;;9.05;;
44147;SDS011;29810;55.848;37.368;2022-08-21T11:41:42;15.90;;;8.27;;
44147;SDS011;29810;55.848;37.368;2022-08-21T11:48:19;18.92;;;7.35;;
44147;SDS011;29810;55.848;37.368;2022-08-21T11:54:46;14.50;;;6.75;;
44147;SDS011;29810;55.848;37.368;2022-08-21T12:01:36;16.35;;;7.72;;
44147;SDS011;29810;55.848;37.368;2022-08-21T12:04:47;17.45;;;8.43;;
44147;SDS011;29810;55.848;37.368;2022-08-21T12:08:05;18.42;;;10.45;;
44147;SDS011;29810;55.848;37.368;2022-08-21T12:14:18;21.27;;;12.13;;
44147;SDS011;29810;55.848;37.368;2022-08-21T12:17:23;23.83;;;13.55;;
44147;SDS011;29810;55.848;37.368;2022-08-21T12:20:37;22.20;;;13.10;;
44147;SDS011;29810;55.848;37.368;2022-08-21T12:30:49;20.40;;;12.48;;
44147;SDS011;29810;55.848;37.368;2022-08-21T12:33:57;18.40;;;11.68;;
44147;SDS011;29810;55.848;37.368;2022-08-21T12:37:04;19.25;;;11.43;;
44147;SDS011;29810;55.848;37.368;2022-08-21T12:43:36;23.58;;;11.18;;
44147;SDS011;29810;55.848;37.368;2022-08-21T12:46:43;18.77;;;10.98;;
44147;SDS011;29810;55.848;37.368;2022-08-21T12:49:56;18.25;;;11.00;;
44147;SDS011;29810;55.848;37.368;2022-08-21T12:53:10;20.02;;;10.73;;
44147;SDS011;29810;55.848;37.368;2022-08-21T12:56:26;16.45;;;10.32;;
44147;SDS011;29810;55.848;37.368;2022-08-21T12:59:32;15.07;;;10.30;;
44147;SDS011;29810;55.848;37.368;2022-08-21T13:02:42;15.05;;;10.13;;
44147;SDS011;29810;55.848;37.368;2022-08-21T13:05:47;18.80;;;10.27;;
44147;SDS011;29810;55.848;37.368;2022-08-21T13:08:51;17.65;;;9.85;;
44147;SDS011;29810;55.848;37.368;2022-08-21T13:11:58;17.70;;;9.38;;
44147;SDS011;29810;55.848;37.368;2022-08-21T13:15:02;16.25;;;7.87;;
44147;SDS011;29810;55.848;37.368;2022-08-21T13:18:06;13.90;;;7.57;;
44147;SDS011;29810;55.848;37.368;2022-08-21T13:21:12;15.65;;;8.23;;
44147;SDS011;29810;55.848;37.368;2022-08-21T13:27:29;17.98;;;9.88;;
44147;SDS011;29810;55.848;37.368;2022-08-21T13:30:31;20.33;;;10.63;;
44147;SDS011;29810;55.848;37.368;2022-08-21T13:33:33;18.65;;;10.85;;
44147;SDS011;29810;55.848;37.368;2022-08-21T13:36:36;18.23;;;10.82;;
44147;SDS011;29810;55.848;37.368;2022-08-21T13:39:41;17.90;;;10.60;;
44147;SDS011;29810;55.848;37.368;2022-08-21T13:42:50;14.80;;;8.93;;
44147;SDS011;29810;55.848;37.368;2022-08-21T13:45:54;18.33;;;9.48;;
44147;SDS011;29810;55.848;37.368;2022-08-21T13:48:57;18.23;;;9.13;;
44147;SDS011;29810;55.848;37.368;2022-08-21T13:52:01;19.83;;;8.43;;
44147;SDS011;29810;55.848;37.368;2022-08-21T13:55:12;15.52;;;7.80;;
44147;SDS011;29810;55.848;37.368;2022-08-21T13:58:27;18.33;;;8.18;;
44147;SDS011;29810;55.848;37.368;2022-08-21T14:01:33;15.60;;;7.72;;
44147;SDS011;29810;55.848;37.368;2022-08-21T14:04:49;18.00;;;8.57;;
44147;SDS011;29810;55.848;37.368;2022-08-21T14:08:01;16.98;;;8.07;;
44147;SDS011;29810;55.848;37.368;2022-08-21T14:11:13;17.65;;;8.13;;
44147;SDS011;29810;55.848;37.368;2022-08-21T14:14:28;16.85;;;8.30;;
44147;SDS011;29810;55.848;37.368;2022-08-21T14:17:35;20.15;;;8.25;;
44147;SDS011;29810;55.848;37.368;2022-08-21T14:20:38;18.37;;;8.80;;
44147;SDS011;29810;55.848;37.368;2022-08-21T14:23:40;13.50;;;8.20;;
44147;SDS011;29810;55.848;37.368;2022-08-21T14:26:44;17.42;;;8.57;;
44147;SDS011;29810;55.848;37.368;2022-08-21T14:29:58;15.35;;;9.27;;
44147;SDS011;29810;55.848;37.368;2022-08-21T14:33:26;17.45;;;9.20;;
44147;SDS011;29810;55.848;37.368;2022-08-21T14:36:30;16.73;;;9.07;;
44147;SDS011;29810;55.848;37.368;2022-08-21T14:39:31;19.55;;;9.63;;
44147;SDS011;29810;55.848;37.368;2022-08-21T14:42:34;14.27;;;9.50;;
44147;SDS011;29810;55.848;37.368;2022-08-21T14:45:35;16.98;;;8.35;;
44147;SDS011;29810;55.848;37.368;2022-08-21T14:48:40;15.63;;;6.22;;
44147;SDS011;29810;55.848;37.368;2022-08-21T14:51:41;14.00;;;5.40;;
44147;SDS011;29810;55.848;37.368;2022-08-21T14:54:43;11.25;;;5.20;;
44147;SDS011;29810;55.848;37.368;2022-08-21T14:57:45;7.60;;;4.60;;
44147;SDS011;29810;55.848;37.368;2022-08-21T15:00:51;8.75;;;3.95;;
44147;SDS011;29810;55.848;37.368;2022-08-21T15:03:54;11.90;;;4.45;;
44147;SDS011;29810;55.848;37.368;2022-08-21T15:06:56;10.70;;;3.83;;
44147;SDS011;29810;55.848;37.368;2022-08-21T15:09:58;8.40;;;4.40;;
44147;SDS011;29810;55.848;37.368;2022-08-21T15:13:00;8.80;;;4.00;;
44147;SDS011;29810;55.848;37.368;2022-08-21T15:16:02;8.60;;;4.05;;
44147;SDS011;29810;55.848;37.368;2022-08-21T15:19:04;8.60;;;4.07;;
44147;SDS011;29810;55.848;37.368;2022-08-21T15:22:06;9.30;;;3.80;;
44147;SDS011;29810;55.848;37.368;2022-08-21T15:25:08;14.13;;;3.65;;
44147;SDS011;29810;55.848;37.368;2022-08-21T15:28:10;11.10;;;4.07;;
44147;SDS011;29810;55.848;37.368;2022-08-21T15:31:13;9.00;;;3.20;;
44147;SDS011;29810;55.848;37.368;2022-08-21T15:34:15;7.75;;;3.53;;
44147;SDS011;29810;55.848;37.368;2022-08-21T15:37:18;8.13;;;3.20;;
44147;SDS011;29810;55.848;37.368;2022-08-21T15:40:20;8.48;;;2.75;;
44147;SDS011;29810;55.848;37.368;2022-08-21T15:43:26;5.30;;;2.65;;
44147;SDS011;29810;55.848;37.368;2022-08-21T15:46:29;9.32;;;3.12;;
44147;SDS011;29810;55.848;37.368;2022-08-21T15:49:32;10.98;;;2.97;;
44147;SDS011;29810;55.848;37.368;2022-08-21T15:52:33;11.45;;;3.03;;
44147;SDS011;29810;55.848;37.368;2022-08-21T15:55:36;6.18;;;2.22;;
44147;SDS011;29810;55.848;37.368;2022-08-21T15:58:37;11.40;;;3.03;;
44147;SDS011;29810;55.848;37.368;2022-08-21T16:01:40;8.55;;;2.35;;
44147;SDS011;29810;55.848;37.368;2022-08-21T16:04:42;9.88;;;5.30;;
44147;SDS011;29810;55.848;37.368;2022-08-21T16:07:43;11.65;;;2.90;;
44147;SDS011;29810;55.848;37.368;2022-08-21T16:10:47;5.25;;;2.30;;
44147;SDS011;29810;55.848;37.368;2022-08-21T16:13:49;9.80;;;3.00;;
44147;SDS011;29810;55.848;37.368;2022-08-21T16:16:51;13.05;;;2.80;;
44147;SDS011;29810;55.848;37.368;2022-08-21T16:19:54;9.63;;;2.78;;
44147;SDS011;29810;55.848;37.368;2022-08-21T16:22:56;8.15;;;2.37;;
44147;SDS011;29810;55.848;37.368;2022-08-21T16:25:59;11.43;;;2.65;;
44147;SDS011;29810;55.848;37.368;2022-08-21T16:29:01;9.20;;;2.40;;
44147;SDS011;29810;55.848;37.368;2022-08-21T16:32:04;9.05;;;2.40;;
44147;SDS011;29810;55.848;37.368;2022-08-21T16:35:07;7.03;;;2.28;;
44147;SDS011;29810;55.848;37.368;2022-08-21T16:38:13;12.65;;;2.67;;
44147;SDS011;29810;55.848;37.368;2022-08-21T16:41:16;7.55;;;2.25;;
44147;SDS011;29810;55.848;37.368;2022-08-21T16:44:19;11.32;;;2.70;;
44147;SDS011;29810;55.848;37.368;2022-08-21T16:47:23;9.45;;;2.58;;
44147;SDS011;29810;55.848;37.368;2022-08-21T16:50:24;7.62;;;2.28;;
44147;SDS011;29810;55.848;37.368;2022-08-21T16:53:26;8.00;;;2.45;;
44147;SDS011;29810;55.848;37.368;2022-08-21T16:56:27;8.35;;;2.55;;
44147;SDS011;29810;55.848;37.368;2022-08-21T16:59:30;7.05;;;2.62;;
44147;SDS011;29810;55.848;37.368;2022-08-21T17:02:33;11.70;;;2.47;;
44147;SDS011;29810;55.848;37.368;2022-08-21T17:05:37;6.97;;;2.60;;
44147;SDS011;29810;55.848;37.368;2022-08-21T17:08:39;11.63;;;2.53;;
44147;SDS011;29810;55.848;37.368;2022-08-21T17:11:42;6.97;;;3.17;;
44147;SDS011;29810;55.848;37.368;2022-08-21T17:14:47;8.95;;;3.12;;
44147;SDS011;29810;55.848;37.368;2022-08-21T17:17:49;8.75;;;3.50;;
44147;SDS011;29810;55.848;37.368;2022-08-21T17:20:52;9.90;;;4.18;;
44147;SDS011;29810;55.848;37.368;2022-08-21T17:23:54;13.80;;;6.70;;
44147;SDS011;29810;55.848;37.368;2022-08-21T17:26:55;15.57;;;10.07;;
44147;SDS011;29810;55.848;37.368;2022-08-21T17:29:57;18.27;;;11.95;;
44147;SDS011;29810;55.848;37.368;2022-08-21T17:32:59;19.87;;;15.30;;
44147;SDS011;29810;55.848;37.368;2022-08-21T17:36:01;28.80;;;18.08;;
44147;SDS011;29810;55.848;37.368;2022-08-21T17:39:04;22.13;;;18.95;;
44147;SDS011;29810;55.848;37.368;2022-08-21T17:42:08;27.48;;;21.80;;
44147;SDS011;29810;55.848;37.368;2022-08-21T17:45:13;29.25;;;24.05;;
44147;SDS011;29810;55.848;37.368;2022-08-21T17:51:19;31.23;;;26.85;;
44147;SDS011;29810;55.848;37.368;2022-08-21T17:54:20;33.83;;;27.08;;
44147;SDS011;29810;55.848;37.368;2022-08-21T17:57:22;33.20;;;25.73;;
44147;SDS011;29810;55.848;37.368;2022-08-21T18:00:28;27.23;;;24.08;;
44147;SDS011;29810;55.848;37.368;2022-08-21T18:03:31;25.48;;;22.65;;
44147;SDS011;29810;55.848;37.368;2022-08-21T18:06:35;28.10;;;24.37;;
44147;SDS011;29810;55.848;37.368;2022-08-21T18:09:37;28.52;;;23.02;;
44147;SDS011;29810;55.848;37.368;2022-08-21T18:12:39;29.58;;;23.08;;
44147;SDS011;29810;55.848;37.368;2022-08-21T18:15:43;25.08;;;22.50;;
44147;SDS011;29810;55.848;37.368;2022-08-21T18:18:49;27.25;;;21.52;;
44147;SDS011;29810;55.848;37.368;2022-08-21T18:21:52;26.65;;;21.87;;
44147;SDS011;29810;55.848;37.368;2022-08-21T18:24:55;24.83;;;21.30;;
44147;SDS011;29810;55.848;37.368;2022-08-21T18:27:56;32.50;;;21.27;;
44147;SDS011;29810;55.848;37.368;2022-08-21T18:30:59;24.35;;;20.05;;
44147;SDS011;29810;55.848;37.368;2022-08-21T18:34:02;24.27;;;18.20;;
44147;SDS011;29810;55.848;37.368;2022-08-21T18:37:08;23.60;;;19.35;;
44147;SDS011;29810;55.848;37.368;2022-08-21T18:40:11;27.33;;;19.15;;
44147;SDS011;29810;55.848;37.368;2022-08-21T18:43:12;22.80;;;18.50;;
44147;SDS011;29810;55.848;37.368;2022-08-21T18:46:15;24.48;;;19.17;;
44147;SDS011;29810;55.848;37.368;2022-08-21T18:49:17;21.90;;;19.02;;
44147;SDS011;29810;55.848;37.368;2022-08-21T18:52:19;24.05;;;19.87;;
44147;SDS011;29810;55.848;37.368;2022-08-21T18:55:21;23.48;;;18.98;;
44147;SDS011;29810;55.848;37.368;2022-08-21T18:58:23;22.95;;;18.92;;
44147;SDS011;29810;55.848;37.368;2022-08-21T19:01:26;27.55;;;18.92;;
44147;SDS011;29810;55.848;37.368;2022-08-21T19:04:27;20.70;;;17.85;;